sensor_id;sensor_type;location;lat;lon;timestamp;P1;durP1;ratioP1;P2;durP2;ratioP2
84784;SDS011;75017;41.576;24.704;2024-03-02T00:01:07;19.08;;;10.45;;
84784;SDS011;75017;41.576;24.704;2024-03-02T00:03:34;19.27;;;9.27;;
84784;SDS011;75017;41.576;24.704;2024-03-02T00:06:02;17.73;;;9.63;;
84784;SDS011;75017;41.576;24.704;2024-03-02T00:08:27;16.25;;;8.98;;
84784;SDS011;75017;41.576;24.704;2024-03-02T00:10:58;13.13;;;8.15;;
84784;SDS011;75017;41.576;24.704;2024-03-02T00:13:24;12.10;;;6.85;;
84784;SDS011;75017;41.576;24.704;2024-03-02T00:15:54;18.20;;;7.93;;
84784;SDS011;75017;41.576;24.704;2024-03-02T00:18:23;13.07;;;7.65;;
84784;SDS011;75017;41.576;24.704;2024-03-02T00:20:54;17.13;;;8.88;;
84784;SDS011;75017;41.576;24.704;2024-03-02T00:23:21;15.60;;;9.77;;
84784;SDS011;75017;41.576;24.704;2024-03-02T00:25:48;17.95;;;9.07;;
84784;SDS011;75017;41.576;24.704;2024-03-02T00:28:39;19.80;;;10.10;;
84784;SDS011;75017;41.576;24.704;2024-03-02T00:31:05;22.52;;;11.35;;
84784;SDS011;75017;41.576;24.704;2024-03-02T00:33:33;18.75;;;10.07;;
84784;SDS011;75017;41.576;24.704;2024-03-02T00:36:01;19.70;;;10.88;;
84784;SDS011;75017;41.576;24.704;2024-03-02T00:38:30;17.98;;;10.15;;
84784;SDS011;75017;41.576;24.704;2024-03-02T00:40:58;17.05;;;9.82;;
84784;SDS011;75017;41.576;24.704;2024-03-02T00:46:05;18.67;;;10.15;;
84784;SDS011;75017;41.576;24.704;2024-03-02T00:48:31;20.23;;;10.30;;
84784;SDS011;75017;41.576;24.704;2024-03-02T00:50:57;18.80;;;10.85;;
84784;SDS011;75017;41.576;24.704;2024-03-02T00:53:23;20.95;;;11.05;;
84784;SDS011;75017;41.576;24.704;2024-03-02T00:55:51;19.23;;;11.63;;
84784;SDS011;75017;41.576;24.704;2024-03-02T00:58:17;21.48;;;11.82;;
84784;SDS011;75017;41.576;24.704;2024-03-02T01:00:42;29.00;;;14.13;;
84784;SDS011;75017;41.576;24.704;2024-03-02T01:03:08;22.50;;;12.77;;
84784;SDS011;75017;41.576;24.704;2024-03-02T01:05:35;26.80;;;13.75;;
84784;SDS011;75017;41.576;24.704;2024-03-02T01:08:01;21.98;;;13.80;;
84784;SDS011;75017;41.576;24.704;2024-03-02T01:10:26;27.05;;;15.45;;
84784;SDS011;75017;41.576;24.704;2024-03-02T01:12:52;26.58;;;15.23;;
84784;SDS011;75017;41.576;24.704;2024-03-02T01:15:18;36.35;;;16.33;;
84784;SDS011;75017;41.576;24.704;2024-03-02T01:17:43;27.00;;;15.60;;
84784;SDS011;75017;41.576;24.704;2024-03-02T01:20:09;26.08;;;12.50;;
84784;SDS011;75017;41.576;24.704;2024-03-02T01:22:35;23.05;;;10.07;;
84784;SDS011;75017;41.576;24.704;2024-03-02T01:25:01;19.50;;;10.77;;
84784;SDS011;75017;41.576;24.704;2024-03-02T01:27:27;20.42;;;11.80;;
84784;SDS011;75017;41.576;24.704;2024-03-02T01:29:53;23.05;;;13.25;;
84784;SDS011;75017;41.576;24.704;2024-03-02T01:32:19;21.90;;;12.07;;
84784;SDS011;75017;41.576;24.704;2024-03-02T01:34:45;19.65;;;12.98;;
84784;SDS011;75017;41.576;24.704;2024-03-02T01:37:11;21.95;;;11.57;;
84784;SDS011;75017;41.576;24.704;2024-03-02T01:39:36;24.50;;;12.45;;
84784;SDS011;75017;41.576;24.704;2024-03-02T01:42:02;22.92;;;11.75;;
84784;SDS011;75017;41.576;24.704;2024-03-02T01:44:27;17.83;;;10.07;;
84784;SDS011;75017;41.576;24.704;2024-03-02T01:46:53;21.38;;;11.13;;
84784;SDS011;75017;41.576;24.704;2024-03-02T01:49:19;19.25;;;11.30;;
84784;SDS011;75017;41.576;24.704;2024-03-02T01:51:44;23.70;;;13.32;;
84784;SDS011;75017;41.576;24.704;2024-03-02T01:54:10;22.50;;;12.82;;
84784;SDS011;75017;41.576;24.704;2024-03-02T01:56:35;19.30;;;11.70;;
84784;SDS011;75017;41.576;24.704;2024-03-02T01:59:01;24.02;;;13.23;;
84784;SDS011;75017;41.576;24.704;2024-03-02T02:01:26;21.65;;;12.10;;
84784;SDS011;75017;41.576;24.704;2024-03-02T02:03:52;22.35;;;13.00;;
84784;SDS011;75017;41.576;24.704;2024-03-02T02:06:17;26.65;;;14.18;;
84784;SDS011;75017;41.576;24.704;2024-03-02T02:08:43;23.52;;;13.73;;
84784;SDS011;75017;41.576;24.704;2024-03-02T02:11:09;28.00;;;14.18;;
84784;SDS011;75017;41.576;24.704;2024-03-02T02:13:34;26.77;;;14.43;;
84784;SDS011;75017;41.576;24.704;2024-03-02T02:16:09;25.45;;;13.30;;
84784;SDS011;75017;41.576;24.704;2024-03-02T02:18:34;23.38;;;13.02;;
84784;SDS011;75017;41.576;24.704;2024-03-02T02:23:28;26.55;;;13.73;;
84784;SDS011;75017;41.576;24.704;2024-03-02T02:25:54;21.27;;;13.20;;
84784;SDS011;75017;41.576;24.704;2024-03-02T02:28:19;24.70;;;14.48;;
84784;SDS011;75017;41.576;24.704;2024-03-02T02:30:45;26.77;;;14.85;;
84784;SDS011;75017;41.576;24.704;2024-03-02T02:33:11;32.75;;;15.35;;
84784;SDS011;75017;41.576;24.704;2024-03-02T02:35:36;31.20;;;15.18;;
84784;SDS011;75017;41.576;24.704;2024-03-02T02:38:02;28.85;;;15.45;;
84784;SDS011;75017;41.576;24.704;2024-03-02T02:40:28;23.95;;;15.10;;
84784;SDS011;75017;41.576;24.704;2024-03-02T02:42:57;28.30;;;14.70;;
84784;SDS011;75017;41.576;24.704;2024-03-02T02:45:24;28.83;;;15.48;;
84784;SDS011;75017;41.576;24.704;2024-03-02T02:47:50;30.30;;;15.95;;
84784;SDS011;75017;41.576;24.704;2024-03-02T02:50:15;30.92;;;15.52;;
84784;SDS011;75017;41.576;24.704;2024-03-02T02:52:41;30.35;;;16.17;;
84784;SDS011;75017;41.576;24.704;2024-03-02T02:55:11;25.02;;;15.50;;
84784;SDS011;75017;41.576;24.704;2024-03-02T02:57:39;26.73;;;16.02;;
84784;SDS011;75017;41.576;24.704;2024-03-02T03:00:07;25.88;;;14.77;;
84784;SDS011;75017;41.576;24.704;2024-03-02T03:02:36;20.63;;;12.32;;
84784;SDS011;75017;41.576;24.704;2024-03-02T03:05:02;24.20;;;14.38;;
84784;SDS011;75017;41.576;24.704;2024-03-02T03:07:28;28.17;;;15.70;;
84784;SDS011;75017;41.576;24.704;2024-03-02T03:09:54;21.52;;;13.80;;
84784;SDS011;75017;41.576;24.704;2024-03-02T03:12:20;23.33;;;12.48;;
84784;SDS011;75017;41.576;24.704;2024-03-02T03:14:45;23.90;;;13.38;;
84784;SDS011;75017;41.576;24.704;2024-03-02T03:17:11;19.20;;;12.25;;
84784;SDS011;75017;41.576;24.704;2024-03-02T03:19:38;24.38;;;15.20;;
84784;SDS011;75017;41.576;24.704;2024-03-02T03:22:03;23.60;;;14.10;;
84784;SDS011;75017;41.576;24.704;2024-03-02T03:24:29;24.52;;;14.63;;
84784;SDS011;75017;41.576;24.704;2024-03-02T03:26:55;29.45;;;16.92;;
84784;SDS011;75017;41.576;24.704;2024-03-02T03:29:20;26.95;;;15.88;;
84784;SDS011;75017;41.576;24.704;2024-03-02T03:31:46;26.42;;;16.17;;
84784;SDS011;75017;41.576;24.704;2024-03-02T03:34:11;28.48;;;16.75;;
84784;SDS011;75017;41.576;24.704;2024-03-02T03:36:40;28.55;;;15.82;;
84784;SDS011;75017;41.576;24.704;2024-03-02T03:39:06;34.90;;;18.77;;
84784;SDS011;75017;41.576;24.704;2024-03-02T03:41:32;34.65;;;18.65;;
84784;SDS011;75017;41.576;24.704;2024-03-02T03:43:57;36.58;;;17.85;;
84784;SDS011;75017;41.576;24.704;2024-03-02T03:46:24;30.55;;;17.27;;
84784;SDS011;75017;41.576;24.704;2024-03-02T03:48:49;31.27;;;16.95;;
84784;SDS011;75017;41.576;24.704;2024-03-02T03:51:15;31.65;;;17.20;;
84784;SDS011;75017;41.576;24.704;2024-03-02T03:53:40;29.67;;;17.95;;
84784;SDS011;75017;41.576;24.704;2024-03-02T03:56:06;30.13;;;16.90;;
84784;SDS011;75017;41.576;24.704;2024-03-02T03:58:31;29.88;;;17.15;;
84784;SDS011;75017;41.576;24.704;2024-03-02T04:00:57;26.30;;;15.18;;
84784;SDS011;75017;41.576;24.704;2024-03-02T04:03:22;25.80;;;15.98;;
84784;SDS011;75017;41.576;24.704;2024-03-02T04:05:48;25.98;;;16.00;;
84784;SDS011;75017;41.576;24.704;2024-03-02T04:08:13;34.13;;;16.85;;
84784;SDS011;75017;41.576;24.704;2024-03-02T04:10:39;24.75;;;15.48;;
84784;SDS011;75017;41.576;24.704;2024-03-02T04:13:05;32.00;;;16.77;;
84784;SDS011;75017;41.576;24.704;2024-03-02T04:15:31;28.60;;;17.52;;
84784;SDS011;75017;41.576;24.704;2024-03-02T04:17:56;27.02;;;15.82;;
84784;SDS011;75017;41.576;24.704;2024-03-02T04:20:22;28.15;;;17.77;;
84784;SDS011;75017;41.576;24.704;2024-03-02T04:22:47;31.05;;;17.48;;
84784;SDS011;75017;41.576;24.704;2024-03-02T04:25:13;32.13;;;19.27;;
84784;SDS011;75017;41.576;24.704;2024-03-02T04:27:38;35.05;;;19.58;;
84784;SDS011;75017;41.576;24.704;2024-03-02T04:30:04;27.92;;;17.40;;
84784;SDS011;75017;41.576;24.704;2024-03-02T04:32:30;156.38;;;34.33;;
84784;SDS011;75017;41.576;24.704;2024-03-02T04:34:56;142.13;;;35.15;;
84784;SDS011;75017;41.576;24.704;2024-03-02T04:37:22;53.70;;;23.02;;
84784;SDS011;75017;41.576;24.704;2024-03-02T04:39:48;50.70;;;21.15;;
84784;SDS011;75017;41.576;24.704;2024-03-02T04:42:13;42.38;;;20.80;;
84784;SDS011;75017;41.576;24.704;2024-03-02T04:44:39;32.35;;;17.17;;
84784;SDS011;75017;41.576;24.704;2024-03-02T04:47:05;34.60;;;17.92;;
84784;SDS011;75017;41.576;24.704;2024-03-02T04:49:30;32.33;;;18.98;;
84784;SDS011;75017;41.576;24.704;2024-03-02T04:51:56;27.02;;;14.20;;
84784;SDS011;75017;41.576;24.704;2024-03-02T04:54:24;36.60;;;19.08;;
84784;SDS011;75017;41.576;24.704;2024-03-02T04:56:49;27.90;;;15.48;;
84784;SDS011;75017;41.576;24.704;2024-03-02T04:59:16;26.60;;;15.65;;
84784;SDS011;75017;41.576;24.704;2024-03-02T05:01:44;25.85;;;15.38;;
84784;SDS011;75017;41.576;24.704;2024-03-02T05:04:10;31.88;;;18.85;;
84784;SDS011;75017;41.576;24.704;2024-03-02T05:06:39;36.17;;;19.00;;
84784;SDS011;75017;41.576;24.704;2024-03-02T05:09:05;28.45;;;17.17;;
84784;SDS011;75017;41.576;24.704;2024-03-02T05:11:31;28.52;;;17.88;;
84784;SDS011;75017;41.576;24.704;2024-03-02T05:14:03;27.83;;;17.08;;
84784;SDS011;75017;41.576;24.704;2024-03-02T05:16:32;29.42;;;18.02;;
84784;SDS011;75017;41.576;24.704;2024-03-02T05:18:59;33.47;;;19.75;;
84784;SDS011;75017;41.576;24.704;2024-03-02T05:21:24;33.88;;;20.60;;
84784;SDS011;75017;41.576;24.704;2024-03-02T05:23:50;31.17;;;19.13;;
84784;SDS011;75017;41.576;24.704;2024-03-02T05:26:15;28.80;;;17.35;;
84784;SDS011;75017;41.576;24.704;2024-03-02T05:28:41;27.88;;;18.35;;
84784;SDS011;75017;41.576;24.704;2024-03-02T05:31:10;38.53;;;22.40;;
84784;SDS011;75017;41.576;24.704;2024-03-02T05:33:39;30.17;;;19.88;;
84784;SDS011;75017;41.576;24.704;2024-03-02T05:36:05;28.83;;;18.90;;
84784;SDS011;75017;41.576;24.704;2024-03-02T05:38:31;34.30;;;19.83;;
84784;SDS011;75017;41.576;24.704;2024-03-02T05:40:57;41.25;;;22.35;;
84784;SDS011;75017;41.576;24.704;2024-03-02T05:43:22;33.75;;;19.00;;
84784;SDS011;75017;41.576;24.704;2024-03-02T05:45:48;37.00;;;22.00;;
84784;SDS011;75017;41.576;24.704;2024-03-02T05:48:14;35.90;;;21.85;;
84784;SDS011;75017;41.576;24.704;2024-03-02T05:50:39;40.85;;;25.00;;
84784;SDS011;75017;41.576;24.704;2024-03-02T05:53:05;37.92;;;23.20;;
84784;SDS011;75017;41.576;24.704;2024-03-02T05:55:30;39.10;;;24.73;;
84784;SDS011;75017;41.576;24.704;2024-03-02T05:57:56;40.72;;;22.38;;
84784;SDS011;75017;41.576;24.704;2024-03-02T06:00:31;34.88;;;20.73;;
84784;SDS011;75017;41.576;24.704;2024-03-02T06:02:57;105.15;;;33.63;;
84784;SDS011;75017;41.576;24.704;2024-03-02T06:05:22;91.22;;;30.55;;
84784;SDS011;75017;41.576;24.704;2024-03-02T06:07:48;148.60;;;43.72;;
84784;SDS011;75017;41.576;24.704;2024-03-02T06:10:13;150.90;;;43.83;;
84784;SDS011;75017;41.576;24.704;2024-03-02T06:12:39;113.05;;;40.63;;
84784;SDS011;75017;41.576;24.704;2024-03-02T06:15:05;354.02;;;101.10;;
84784;SDS011;75017;41.576;24.704;2024-03-02T06:17:31;173.07;;;53.30;;
84784;SDS011;75017;41.576;24.704;2024-03-02T06:19:57;77.75;;;34.33;;
84784;SDS011;75017;41.576;24.704;2024-03-02T06:22:22;74.60;;;36.63;;
84784;SDS011;75017;41.576;24.704;2024-03-02T06:24:50;58.72;;;29.27;;
84784;SDS011;75017;41.576;24.704;2024-03-02T06:27:16;52.10;;;29.23;;
84784;SDS011;75017;41.576;24.704;2024-03-02T06:29:41;63.33;;;34.53;;
84784;SDS011;75017;41.576;24.704;2024-03-02T06:32:07;71.45;;;35.40;;
84784;SDS011;75017;41.576;24.704;2024-03-02T06:34:33;79.47;;;38.65;;
84784;SDS011;75017;41.576;24.704;2024-03-02T06:36:58;68.03;;;35.05;;
84784;SDS011;75017;41.576;24.704;2024-03-02T06:39:24;57.75;;;32.50;;
84784;SDS011;75017;41.576;24.704;2024-03-02T06:41:51;56.97;;;31.35;;
84784;SDS011;75017;41.576;24.704;2024-03-02T06:44:16;62.17;;;33.25;;
84784;SDS011;75017;41.576;24.704;2024-03-02T06:46:42;66.85;;;35.80;;
84784;SDS011;75017;41.576;24.704;2024-03-02T06:49:07;63.35;;;34.45;;
84784;SDS011;75017;41.576;24.704;2024-03-02T06:51:35;52.28;;;32.92;;
84784;SDS011;75017;41.576;24.704;2024-03-02T06:54:01;53.28;;;32.17;;
84784;SDS011;75017;41.576;24.704;2024-03-02T06:56:26;56.20;;;34.13;;
84784;SDS011;75017;41.576;24.704;2024-03-02T06:58:52;69.28;;;38.65;;
84784;SDS011;75017;41.576;24.704;2024-03-02T07:01:17;50.22;;;30.10;;
84784;SDS011;75017;41.576;24.704;2024-03-02T07:03:42;45.15;;;26.25;;
84784;SDS011;75017;41.576;24.704;2024-03-02T07:06:09;42.88;;;23.17;;
84784;SDS011;75017;41.576;24.704;2024-03-02T07:08:34;44.03;;;26.00;;
84784;SDS011;75017;41.576;24.704;2024-03-02T07:11:00;44.40;;;28.38;;
84784;SDS011;75017;41.576;24.704;2024-03-02T07:13:26;46.13;;;28.23;;
84784;SDS011;75017;41.576;24.704;2024-03-02T07:15:52;53.28;;;31.73;;
84784;SDS011;75017;41.576;24.704;2024-03-02T07:18:29;67.57;;;39.80;;
84784;SDS011;75017;41.576;24.704;2024-03-02T07:21:09;73.50;;;42.35;;
84784;SDS011;75017;41.576;24.704;2024-03-02T07:23:35;76.50;;;42.53;;
84784;SDS011;75017;41.576;24.704;2024-03-02T07:26:01;74.80;;;43.83;;
84784;SDS011;75017;41.576;24.704;2024-03-02T07:28:27;68.32;;;37.97;;
84784;SDS011;75017;41.576;24.704;2024-03-02T07:31:02;69.43;;;38.17;;
84784;SDS011;75017;41.576;24.704;2024-03-02T07:33:29;64.13;;;38.65;;
84784;SDS011;75017;41.576;24.704;2024-03-02T07:35:56;66.22;;;38.47;;
84784;SDS011;75017;41.576;24.704;2024-03-02T07:38:22;60.15;;;36.47;;
84784;SDS011;75017;41.576;24.704;2024-03-02T07:40:48;65.50;;;37.38;;
84784;SDS011;75017;41.576;24.704;2024-03-02T07:43:18;54.03;;;30.88;;
84784;SDS011;75017;41.576;24.704;2024-03-02T07:45:47;53.03;;;30.90;;
84784;SDS011;75017;41.576;24.704;2024-03-02T07:48:13;51.97;;;29.42;;
84784;SDS011;75017;41.576;24.704;2024-03-02T07:50:39;40.53;;;23.33;;
84784;SDS011;75017;41.576;24.704;2024-03-02T07:53:05;40.85;;;25.10;;
84784;SDS011;75017;41.576;24.704;2024-03-02T07:55:32;41.70;;;23.77;;
84784;SDS011;75017;41.576;24.704;2024-03-02T07:57:58;45.38;;;25.08;;
84784;SDS011;75017;41.576;24.704;2024-03-02T08:00:24;34.42;;;22.23;;
84784;SDS011;75017;41.576;24.704;2024-03-02T08:02:50;41.97;;;22.33;;
84784;SDS011;75017;41.576;24.704;2024-03-02T08:05:17;49.13;;;24.85;;
84784;SDS011;75017;41.576;24.704;2024-03-02T08:07:44;55.47;;;27.98;;
84784;SDS011;75017;41.576;24.704;2024-03-02T08:10:11;36.20;;;20.88;;
84784;SDS011;75017;41.576;24.704;2024-03-02T08:12:37;38.92;;;22.73;;
84784;SDS011;75017;41.576;24.704;2024-03-02T08:15:02;44.55;;;24.42;;
84784;SDS011;75017;41.576;24.704;2024-03-02T08:17:29;31.35;;;18.63;;
84784;SDS011;75017;41.576;24.704;2024-03-02T08:19:55;44.70;;;27.50;;
84784;SDS011;75017;41.576;24.704;2024-03-02T08:22:21;44.45;;;26.95;;
84784;SDS011;75017;41.576;24.704;2024-03-02T08:24:47;48.42;;;28.55;;
84784;SDS011;75017;41.576;24.704;2024-03-02T08:27:12;37.75;;;22.88;;
84784;SDS011;75017;41.576;24.704;2024-03-02T08:29:38;30.95;;;17.33;;
84784;SDS011;75017;41.576;24.704;2024-03-02T08:32:04;37.63;;;22.08;;
84784;SDS011;75017;41.576;24.704;2024-03-02T08:34:31;45.55;;;25.55;;
84784;SDS011;75017;41.576;24.704;2024-03-02T08:36:56;51.25;;;30.30;;
84784;SDS011;75017;41.576;24.704;2024-03-02T08:39:22;37.30;;;21.60;;
84784;SDS011;75017;41.576;24.704;2024-03-02T08:41:47;31.63;;;18.27;;
84784;SDS011;75017;41.576;24.704;2024-03-02T08:44:13;34.80;;;20.35;;
84784;SDS011;75017;41.576;24.704;2024-03-02T08:46:39;30.00;;;17.15;;
84784;SDS011;75017;41.576;24.704;2024-03-02T08:49:05;28.33;;;17.13;;
84784;SDS011;75017;41.576;24.704;2024-03-02T08:51:31;21.90;;;13.48;;
84784;SDS011;75017;41.576;24.704;2024-03-02T08:53:57;30.55;;;19.70;;
84784;SDS011;75017;41.576;24.704;2024-03-02T08:56:23;30.58;;;18.58;;
84784;SDS011;75017;41.576;24.704;2024-03-02T08:58:49;27.95;;;17.35;;
84784;SDS011;75017;41.576;24.704;2024-03-02T09:01:16;26.55;;;15.32;;
84784;SDS011;75017;41.576;24.704;2024-03-02T09:03:42;25.90;;;15.30;;
84784;SDS011;75017;41.576;24.704;2024-03-02T09:06:11;22.98;;;13.00;;
84784;SDS011;75017;41.576;24.704;2024-03-02T09:08:37;30.80;;;18.35;;
84784;SDS011;75017;41.576;24.704;2024-03-02T09:11:04;25.92;;;15.88;;
84784;SDS011;75017;41.576;24.704;2024-03-02T09:13:31;23.55;;;13.07;;
84784;SDS011;75017;41.576;24.704;2024-03-02T09:15:58;20.77;;;12.25;;
84784;SDS011;75017;41.576;24.704;2024-03-02T09:18:23;26.08;;;14.48;;
84784;SDS011;75017;41.576;24.704;2024-03-02T09:20:49;23.70;;;14.10;;
84784;SDS011;75017;41.576;24.704;2024-03-02T09:23:14;19.95;;;11.55;;
84784;SDS011;75017;41.576;24.704;2024-03-02T09:25:40;23.23;;;12.65;;
84784;SDS011;75017;41.576;24.704;2024-03-02T09:28:06;20.25;;;12.25;;
84784;SDS011;75017;41.576;24.704;2024-03-02T09:30:32;17.15;;;10.13;;
84784;SDS011;75017;41.576;24.704;2024-03-02T09:32:58;17.30;;;10.80;;
84784;SDS011;75017;41.576;24.704;2024-03-02T09:35:23;23.15;;;12.95;;
84784;SDS011;75017;41.576;24.704;2024-03-02T09:37:49;14.70;;;9.57;;
84784;SDS011;75017;41.576;24.704;2024-03-02T09:40:15;13.90;;;9.13;;
84784;SDS011;75017;41.576;24.704;2024-03-02T09:42:41;14.05;;;7.55;;
84784;SDS011;75017;41.576;24.704;2024-03-02T09:45:08;18.33;;;10.63;;
84784;SDS011;75017;41.576;24.704;2024-03-02T09:47:35;21.75;;;12.60;;
84784;SDS011;75017;41.576;24.704;2024-03-02T09:50:00;38.97;;;19.25;;
84784;SDS011;75017;41.576;24.704;2024-03-02T09:52:26;22.90;;;12.02;;
84784;SDS011;75017;41.576;24.704;2024-03-02T09:54:52;24.17;;;12.80;;
84784;SDS011;75017;41.576;24.704;2024-03-02T09:57:17;26.42;;;13.98;;
84784;SDS011;75017;41.576;24.704;2024-03-02T09:59:43;25.00;;;13.18;;
84784;SDS011;75017;41.576;24.704;2024-03-02T10:02:10;23.50;;;11.27;;
84784;SDS011;75017;41.576;24.704;2024-03-02T10:04:36;18.65;;;10.13;;
84784;SDS011;75017;41.576;24.704;2024-03-02T10:07:11;26.30;;;15.20;;
84784;SDS011;75017;41.576;24.704;2024-03-02T10:09:41;30.20;;;16.20;;
84784;SDS011;75017;41.576;24.704;2024-03-02T10:12:11;72.03;;;33.80;;
84784;SDS011;75017;41.576;24.704;2024-03-02T10:14:38;48.80;;;27.33;;
84784;SDS011;75017;41.576;24.704;2024-03-02T10:17:05;45.75;;;22.63;;
84784;SDS011;75017;41.576;24.704;2024-03-02T10:19:33;41.33;;;22.48;;
84784;SDS011;75017;41.576;24.704;2024-03-02T10:22:00;46.45;;;25.70;;
84784;SDS011;75017;41.576;24.704;2024-03-02T10:24:27;55.55;;;32.53;;
84784;SDS011;75017;41.576;24.704;2024-03-02T10:26:59;42.75;;;25.70;;
84784;SDS011;75017;41.576;24.704;2024-03-02T10:29:25;41.40;;;23.92;;
84784;SDS011;75017;41.576;24.704;2024-03-02T10:31:53;33.63;;;18.98;;
84784;SDS011;75017;41.576;24.704;2024-03-02T10:34:19;26.02;;;15.63;;
84784;SDS011;75017;41.576;24.704;2024-03-02T10:36:46;21.50;;;13.27;;
84784;SDS011;75017;41.576;24.704;2024-03-02T10:39:12;21.48;;;13.07;;
84784;SDS011;75017;41.576;24.704;2024-03-02T10:41:39;23.80;;;14.07;;
84784;SDS011;75017;41.576;24.704;2024-03-02T10:44:06;17.50;;;11.20;;
84784;SDS011;75017;41.576;24.704;2024-03-02T10:46:33;24.77;;;15.65;;
84784;SDS011;75017;41.576;24.704;2024-03-02T10:49:01;23.67;;;13.85;;
84784;SDS011;75017;41.576;24.704;2024-03-02T10:51:29;16.42;;;9.32;;
84784;SDS011;75017;41.576;24.704;2024-03-02T10:54:01;13.25;;;8.00;;
84784;SDS011;75017;41.576;24.704;2024-03-02T10:56:32;55.90;;;16.60;;
84784;SDS011;75017;41.576;24.704;2024-03-02T10:59:28;32.08;;;13.25;;
84784;SDS011;75017;41.576;24.704;2024-03-02T11:02:00;94.40;;;40.90;;
84784;SDS011;75017;41.576;24.704;2024-03-02T11:04:28;57.08;;;25.38;;
84784;SDS011;75017;41.576;24.704;2024-03-02T11:07:02;25.88;;;14.48;;
84784;SDS011;75017;41.576;24.704;2024-03-02T11:09:33;17.25;;;10.38;;
84784;SDS011;75017;41.576;24.704;2024-03-02T11:12:12;16.40;;;10.27;;
84784;SDS011;75017;41.576;24.704;2024-03-02T11:14:41;18.58;;;10.40;;
84784;SDS011;75017;41.576;24.704;2024-03-02T11:17:08;23.45;;;12.70;;
84784;SDS011;75017;41.576;24.704;2024-03-02T11:19:35;26.17;;;13.55;;
84784;SDS011;75017;41.576;24.704;2024-03-02T11:22:03;23.83;;;10.85;;
84784;SDS011;75017;41.576;24.704;2024-03-02T11:24:30;23.90;;;13.15;;
84784;SDS011;75017;41.576;24.704;2024-03-02T11:27:00;15.65;;;8.52;;
84784;SDS011;75017;41.576;24.704;2024-03-02T11:32:05;14.93;;;10.27;;
84784;SDS011;75017;41.576;24.704;2024-03-02T11:34:34;14.43;;;9.23;;
84784;SDS011;75017;41.576;24.704;2024-03-02T11:37:04;14.90;;;9.75;;
84784;SDS011;75017;41.576;24.704;2024-03-02T11:39:30;12.98;;;7.47;;
84784;SDS011;75017;41.576;24.704;2024-03-02T11:41:57;12.27;;;7.32;;
84784;SDS011;75017;41.576;24.704;2024-03-02T11:44:26;11.48;;;8.45;;
84784;SDS011;75017;41.576;24.704;2024-03-02T11:46:59;11.48;;;7.53;;
84784;SDS011;75017;41.576;24.704;2024-03-02T11:49:37;7.40;;;3.88;;
84784;SDS011;75017;41.576;24.704;2024-03-02T11:52:04;5.85;;;3.60;;
84784;SDS011;75017;41.576;24.704;2024-03-02T11:54:30;5.82;;;4.07;;
84784;SDS011;75017;41.576;24.704;2024-03-02T11:57:00;9.77;;;5.03;;
84784;SDS011;75017;41.576;24.704;2024-03-02T11:59:30;8.90;;;5.28;;
84784;SDS011;75017;41.576;24.704;2024-03-02T12:01:55;11.52;;;6.18;;
84784;SDS011;75017;41.576;24.704;2024-03-02T12:04:22;13.05;;;9.93;;
84784;SDS011;75017;41.576;24.704;2024-03-02T12:06:54;8.15;;;4.85;;
84784;SDS011;75017;41.576;24.704;2024-03-02T12:09:21;9.63;;;6.05;;
84784;SDS011;75017;41.576;24.704;2024-03-02T12:11:47;8.15;;;4.50;;
84784;SDS011;75017;41.576;24.704;2024-03-02T12:14:12;6.47;;;4.15;;
84784;SDS011;75017;41.576;24.704;2024-03-02T12:16:38;7.18;;;3.90;;
84784;SDS011;75017;41.576;24.704;2024-03-02T12:19:05;7.88;;;4.50;;
84784;SDS011;75017;41.576;24.704;2024-03-02T12:21:31;7.45;;;4.90;;
84784;SDS011;75017;41.576;24.704;2024-03-02T12:23:57;9.07;;;4.72;;
84784;SDS011;75017;41.576;24.704;2024-03-02T12:26:22;9.57;;;5.40;;
84784;SDS011;75017;41.576;24.704;2024-03-02T12:28:49;6.93;;;4.00;;
84784;SDS011;75017;41.576;24.704;2024-03-02T12:31:14;7.38;;;4.78;;
84784;SDS011;75017;41.576;24.704;2024-03-02T12:33:40;6.70;;;3.90;;
84784;SDS011;75017;41.576;24.704;2024-03-02T12:36:10;7.05;;;4.07;;
84784;SDS011;75017;41.576;24.704;2024-03-02T12:38:37;6.10;;;3.60;;
84784;SDS011;75017;41.576;24.704;2024-03-02T12:41:03;7.30;;;4.78;;
84784;SDS011;75017;41.576;24.704;2024-03-02T12:43:31;6.93;;;4.45;;
84784;SDS011;75017;41.576;24.704;2024-03-02T12:45:56;14.73;;;8.52;;
84784;SDS011;75017;41.576;24.704;2024-03-02T12:48:23;11.32;;;7.25;;
84784;SDS011;75017;41.576;24.704;2024-03-02T12:50:49;12.45;;;6.90;;
84784;SDS011;75017;41.576;24.704;2024-03-02T12:53:15;12.95;;;6.82;;
84784;SDS011;75017;41.576;24.704;2024-03-02T12:55:41;7.75;;;4.30;;
84784;SDS011;75017;41.576;24.704;2024-03-02T12:58:16;6.82;;;3.80;;
84784;SDS011;75017;41.576;24.704;2024-03-02T13:00:42;14.10;;;6.82;;
84784;SDS011;75017;41.576;24.704;2024-03-02T13:03:08;7.90;;;5.03;;
84784;SDS011;75017;41.576;24.704;2024-03-02T13:05:33;7.35;;;3.60;;
84784;SDS011;75017;41.576;24.704;2024-03-02T13:07:58;11.23;;;7.25;;
84784;SDS011;75017;41.576;24.704;2024-03-02T13:10:29;16.08;;;10.07;;
84784;SDS011;75017;41.576;24.704;2024-03-02T13:12:55;16.85;;;10.00;;
84784;SDS011;75017;41.576;24.704;2024-03-02T13:15:21;13.32;;;8.30;;
84784;SDS011;75017;41.576;24.704;2024-03-02T13:17:47;15.20;;;8.02;;
84784;SDS011;75017;41.576;24.704;2024-03-02T13:20:14;5.45;;;3.20;;
84784;SDS011;75017;41.576;24.704;2024-03-02T13:22:40;4.25;;;2.55;;
84784;SDS011;75017;41.576;24.704;2024-03-02T13:25:05;4.75;;;2.95;;
84784;SDS011;75017;41.576;24.704;2024-03-02T13:27:33;5.47;;;3.38;;
84784;SDS011;75017;41.576;24.704;2024-03-02T13:29:59;7.85;;;4.07;;
84784;SDS011;75017;41.576;24.704;2024-03-02T13:32:24;10.05;;;6.07;;
84784;SDS011;75017;41.576;24.704;2024-03-02T13:34:51;9.88;;;6.07;;
84784;SDS011;75017;41.576;24.704;2024-03-02T13:37:16;7.40;;;4.28;;
84784;SDS011;75017;41.576;24.704;2024-03-02T13:39:42;7.07;;;4.47;;
84784;SDS011;75017;41.576;24.704;2024-03-02T13:42:08;6.85;;;4.18;;
84784;SDS011;75017;41.576;24.704;2024-03-02T13:44:35;9.20;;;6.05;;
84784;SDS011;75017;41.576;24.704;2024-03-02T13:47:02;10.02;;;5.72;;
84784;SDS011;75017;41.576;24.704;2024-03-02T13:49:27;12.00;;;8.18;;
84784;SDS011;75017;41.576;24.704;2024-03-02T13:52:02;11.60;;;7.95;;
84784;SDS011;75017;41.576;24.704;2024-03-02T13:54:36;9.65;;;6.05;;
84784;SDS011;75017;41.576;24.704;2024-03-02T13:57:02;10.00;;;5.97;;
84784;SDS011;75017;41.576;24.704;2024-03-02T13:59:27;13.20;;;7.25;;
84784;SDS011;75017;41.576;24.704;2024-03-02T14:01:53;10.50;;;6.93;;
84784;SDS011;75017;41.576;24.704;2024-03-02T14:04:18;16.58;;;10.68;;
84784;SDS011;75017;41.576;24.704;2024-03-02T14:06:44;16.35;;;10.60;;
84784;SDS011;75017;41.576;24.704;2024-03-02T14:09:09;13.75;;;7.75;;
84784;SDS011;75017;41.576;24.704;2024-03-02T14:11:35;15.38;;;10.75;;
84784;SDS011;75017;41.576;24.704;2024-03-02T14:14:00;9.52;;;6.10;;
84784;SDS011;75017;41.576;24.704;2024-03-02T14:16:26;12.07;;;7.97;;
84784;SDS011;75017;41.576;24.704;2024-03-02T14:18:52;8.15;;;5.22;;